Time;durP1;ratioP1;P1;durP2;ratioP2;P2;SDS_P1;SDS_P2;PMS_P1;PMS_P2;Temp;Humidity;BMP_temperature;BMP_pressure;BME280_temperature;BME280_humidity;BME280_pressure;Samples;Min_cycle;Max_cycle;Signal;HPM_P1;HPM_P2
2022/04/23 00:01:58;;;;;;;34.58;18.60;;;13.10;71.60;;;;;;5032970;28;20036;-77
2022/04/23 00:04:24;;;;;;;31.23;17.45;;;13.10;71.70;;;;;;5016948;28;20120;-77
2022/04/23 00:06:50;;;;;;;29.65;17.27;;;13.10;71.70;;;;;;5048095;28;20041;-77
2022/04/23 00:09:16;;;;;;;34.83;17.58;;;13.10;71.60;;;;;;5015027;28;20075;-77
2022/04/23 00:11:43;;;;;;;30.92;17.58;;;13.10;71.60;;;;;;5054160;28;20075;-75
2022/04/23 00:14:09;;;;;;;31.88;17.27;;;13.10;71.60;;;;;;5055467;28;20040;-76
2022/04/23 00:16:36;;;;;;;28.52;18.20;;;13.10;71.60;;;;;;5054617;28;20503;-74
2022/04/23 00:19:02;;;;;;;32.42;18.10;;;13.10;71.70;;;;;;5037467;28;20392;-75
2022/04/23 00:21:28;;;;;;;31.13;17.33;;;13.10;71.70;;;;;;5028025;28;20038;-74
2022/04/23 00:23:54;;;;;;;;;;;13.10;71.10;;;;;;5019694;28;20481;-76
2022/04/23 00:26:20;;;;;;;30.25;16.25;;;13.10;71.40;;;;;;5029735;28;19919;-75
2022/04/23 00:28:46;;;;;;;28.00;15.88;;;13.10;71.50;;;;;;5044623;28;20026;-77
2022/04/23 00:31:14;;;;;;;28.15;15.73;;;13.00;71.50;;;;;;5036704;28;20033;-77
2022/04/23 00:33:40;;;;;;;22.40;14.05;;;13.10;71.70;;;;;;5034029;28;20041;-75
2022/04/23 00:36:09;;;;;;;21.83;14.00;;;13.00;71.50;;;;;;5040088;28;20029;-76
2022/04/23 00:38:39;;;;;;;20.50;12.77;;;13.00;71.60;;;;;;5055353;28;20052;-75
2022/04/23 00:41:06;;;;;;;26.25;13.75;;;13.00;71.70;;;;;;5020563;28;20029;-75
2022/04/23 00:43:34;;;;;;;23.08;13.45;;;13.00;71.30;;;;;;5034244;28;20052;-76
2022/04/23 00:46:02;;;;;;;22.52;12.70;;;13.00;71.90;;;;;;5031075;28;20026;-75
2022/04/23 00:48:29;;;;;;;22.95;12.25;;;13.00;72.00;;;;;;5032447;28;20037;-74
2022/04/23 00:51:15;;;;;;;21.48;12.40;;;13.00;71.90;;;;;;5024623;28;20028;-75
2022/04/23 00:53:41;;;;;;;18.92;12.48;;;13.00;72.20;;;;;;5040495;28;20056;-77
2022/04/23 00:56:08;;;;;;;22.35;12.77;;;13.00;72.10;;;;;;5033372;28;20033;-77
2022/04/23 00:58:34;;;;;;;22.00;12.40;;;13.00;72.10;;;;;;5031385;28;20061;-77
2022/04/23 01:01:00;;;;;;;;;;;13.00;72.10;;;;;;5037294;28;20029;-76
2022/04/23 01:03:26;;;;;;;22.50;13.63;;;13.00;71.60;;;;;;5055236;28;20011;-76
2022/04/23 01:05:53;;;;;;;22.48;12.73;;;13.00;71.60;;;;;;5053764;28;20037;-74
2022/04/23 01:08:20;;;;;;;22.65;12.85;;;13.00;71.70;;;;;;5033844;28;20029;-77
2022/04/23 01:10:48;;;;;;;21.55;13.50;;;13.00;71.80;;;;;;5050639;28;20029;-75
2022/04/23 01:13:15;;;;;;;23.35;12.27;;;13.00;71.90;;;;;;5020685;28;20060;-76
2022/04/23 01:16:02;;;;;;;22.63;12.93;;;13.00;71.50;;;;;;5029201;28;20022;-76
2022/04/23 01:18:29;;;;;;;18.98;11.43;;;13.00;72.20;;;;;;5032277;28;20045;-75
2022/04/23 01:21:14;;;;;;;20.98;12.40;;;13.00;72.10;;;;;;5035496;28;20104;-74
2022/04/23 01:23:45;;;;;;;22.52;11.68;;;13.00;72.10;;;;;;5025504;28;20044;-74
2022/04/23 01:26:13;;;;;;;18.80;11.75;;;12.90;71.90;;;;;;5051752;28;20426;-77
2022/04/23 01:28:39;;;;;;;21.02;11.80;;;13.00;72.10;;;;;;5054011;28;20056;-77
2022/04/23 01:31:07;;;;;;;21.85;13.07;;;13.00;72.10;;;;;;5035871;28;20562;-74
2022/04/23 01:33:36;;;;;;;23.35;12.45;;;13.00;72.00;;;;;;5028648;28;20413;-77
2022/04/23 01:36:21;;;;;;;22.05;11.85;;;12.90;71.40;;;;;;5029686;28;20135;-75
2022/04/23 01:38:47;;;;;;;21.33;11.57;;;13.00;72.20;;;;;;5017106;28;20041;-77
2022/04/23 01:41:13;;;;;;;;;;;13.00;72.10;;;;;;5032937;28;20053;-77
2022/04/23 01:43:40;;;;;;;19.13;10.95;;;13.00;71.80;;;;;;5032620;28;19921;-74
2022/04/23 01:46:06;;;;;;;18.45;11.57;;;12.90;71.90;;;;;;5032508;28;20447;-76
2022/04/23 01:48:33;;;;;;;20.00;11.20;;;12.90;72.10;;;;;;5034059;28;20032;-76
2022/04/23 01:50:59;;;;;;;18.90;11.68;;;12.90;72.10;;;;;;5034490;28;20037;-74
2022/04/23 01:53:25;;;;;;;20.85;11.65;;;12.90;72.10;;;;;;5034163;28;20048;-75
2022/04/23 01:56:12;;;;;;;21.73;13.25;;;12.90;72.00;;;;;;5008108;28;20044;-76
2022/04/23 01:58:38;;;;;;;18.58;11.73;;;12.90;72.10;;;;;;5051771;28;20087;-76
2022/04/23 02:01:04;;;;;;;22.02;12.55;;;13.00;72.00;;;;;;5027734;28;20044;-74
2022/04/23 02:03:31;;;;;;;19.98;12.60;;;13.00;72.10;;;;;;5027368;28;20033;-74
2022/04/23 02:05:57;;;;;;;21.27;12.77;;;12.90;72.40;;;;;;5051659;28;20040;-76
2022/04/23 02:08:23;;;;;;;20.42;11.63;;;12.80;72.70;;;;;;5039702;28;20496;-75
2022/04/23 02:10:50;;;;;;;20.85;13.52;;;12.90;73.60;;;;;;5034544;28;20079;-76
2022/04/23 02:13:16;;;;;;;;;;;12.90;72.70;;;;;;5053444;28;20116;-77
2022/04/23 02:15:42;;;;;;;27.10;14.75;;;12.90;72.20;;;;;;5052584;28;20376;-76
2022/04/23 02:18:09;;;;;;;22.30;13.23;;;12.90;72.10;;;;;;5029283;28;20120;-74
2022/04/23 02:20:35;;;;;;;21.42;12.30;;;12.90;72.20;;;;;;5031217;28;20033;-75
2022/04/23 02:23:01;;;;;;;23.00;13.05;;;12.90;72.30;;;;;;5038021;28;20127;-77
2022/04/23 02:25:27;;;;;;;22.77;13.13;;;12.90;72.30;;;;;;5052319;28;20041;-76
2022/04/23 02:27:53;;;;;;;20.48;12.75;;;13.00;72.20;;;;;;5033013;28;20056;-76
2022/04/23 02:30:21;;;;;;;21.63;13.07;;;13.00;72.10;;;;;;5015250;28;20049;-74
2022/04/23 02:32:49;;;;;;;21.48;12.52;;;13.00;72.00;;;;;;5028262;28;20053;-76
2022/04/23 02:35:16;;;;;;;20.52;12.15;;;13.00;72.10;;;;;;5031452;28;20029;-77
2022/04/23 02:38:01;;;;;;;25.17;14.38;;;12.90;72.30;;;;;;5033270;28;20040;-77
2022/04/23 02:40:29;;;;;;;20.73;12.02;;;12.90;72.30;;;;;;5052412;28;20021;-76
2022/04/23 02:42:56;;;;;;;26.23;13.07;;;12.90;72.30;;;;;;5028641;28;20033;-77
2022/04/23 02:45:24;;;;;;;26.95;12.82;;;12.80;72.40;;;;;;5027526;28;20033;-76
2022/04/23 02:47:53;;;;;;;23.88;13.57;;;12.70;72.80;;;;;;5033809;28;20079;-75
2022/04/23 02:50:38;;;;;;;23.95;12.57;;;12.70;72.80;;;;;;5017596;28;20033;-75
2022/04/23 02:53:07;;;;;;;24.15;13.52;;;12.60;72.90;;;;;;5028202;28;20513;-74
2022/04/23 02:55:35;;;;;;;23.27;13.80;;;12.60;72.90;;;;;;5030612;28;20104;-75
2022/04/23 02:58:24;;;;;;;23.65;13.35;;;12.60;72.80;;;;;;5052177;28;20386;-77
2022/04/23 03:00:50;;;;;;;21.95;11.90;;;12.70;72.70;;;;;;5028616;28;20029;-77
2022/04/23 03:03:16;;;;;;;23.48;13.07;;;12.70;72.70;;;;;;5033793;28;20485;-76
2022/04/23 03:05:42;;;;;;;;;;;12.70;72.50;;;;;;5051176;28;20036;-76
2022/04/23 03:08:11;;;;;;;35.30;18.88;;;12.70;72.20;;;;;;5051652;28;20250;-76
2022/04/23 03:10:41;;;;;;;33.22;18.70;;;12.60;72.10;;;;;;5031186;28;20026;-76
2022/04/23 03:13:09;;;;;;;36.88;19.27;;;12.60;71.90;;;;;;5034791;28;20124;-75
2022/04/23 03:15:36;;;;;;;29.48;16.08;;;12.60;72.40;;;;;;5030909;28;20081;-75
2022/04/23 03:18:22;;;;;;;26.77;14.90;;;12.60;72.60;;;;;;5030135;28;20037;-74
2022/04/23 03:20:49;;;;;;;30.90;16.27;;;12.50;72.70;;;;;;5031611;28;20030;-77
2022/04/23 03:23:15;;;;;;;26.00;14.13;;;12.50;72.70;;;;;;5051195;28;20443;-74
2022/04/23 03:25:41;;;;;;;24.27;14.13;;;12.60;72.70;;;;;;5011117;28;20486;-74
2022/04/23 03:28:07;;;;;;;27.27;15.25;;;12.60;72.40;;;;;;5026217;28;20075;-77
2022/04/23 03:30:33;;;;;;;27.33;13.90;;;12.60;72.30;;;;;;5050731;28;20025;-76
2022/04/23 03:32:59;;;;;;;21.45;12.88;;;12.60;72.40;;;;;;5034245;28;20048;-77
2022/04/23 03:35:26;;;;;;;21.75;12.40;;;12.50;72.60;;;;;;5033953;28;20025;-77
2022/04/23 03:37:55;;;;;;;23.27;13.18;;;12.60;72.40;;;;;;5045262;28;20484;-77
2022/04/23 03:40:22;;;;;;;22.45;13.13;;;12.60;72.30;;;;;;5034399;28;20033;-74
2022/04/23 03:42:48;;;;;;;;;;;12.60;72.20;;;;;;5034110;28;20044;-77
2022/04/23 03:48:01;;;;;;;25.88;14.50;;;12.60;71.60;;;;;;5040467;28;20048;-75
2022/04/23 03:50:28;;;;;;;21.98;12.55;;;12.60;71.80;;;;;;5038168;28;20025;-74
2022/04/23 03:52:56;;;;;;;23.70;13.55;;;12.70;71.80;;;;;;5030040;28;20045;-75
2022/04/23 03:55:25;;;;;;;23.92;12.90;;;12.70;71.90;;;;;;5038069;28;20388;-77
2022/04/23 03:57:54;;;;;;;23.83;12.43;;;12.70;71.80;;;;;;5030929;28;20037;-75
2022/04/23 04:00:21;;;;;;;22.33;12.25;;;12.70;72.00;;;;;;5034471;28;20484;-77
2022/04/23 04:02:48;;;;;;;21.25;11.82;;;12.60;72.20;;;;;;5027296;28;20087;-76
2022/04/23 04:05:15;;;;;;;21.52;12.45;;;12.60;72.40;;;;;;5033292;28;20036;-77
2022/04/23 04:07:59;;;;;;;20.80;11.68;;;12.60;72.50;;;;;;5026875;28;20449;-77
2022/04/23 04:10:25;;;;;;;21.17;12.70;;;12.70;72.50;;;;;;5040236;28;20060;-77
2022/04/23 04:12:52;;;;;;;22.67;12.45;;;12.70;72.30;;;;;;5056037;28;20147;-76
2022/04/23 04:15:20;;;;;;;;;;;12.70;72.30;;;;;;5015044;28;20037;-74
2022/04/23 04:20:35;;;;;;;22.83;12.80;;;12.70;71.90;;;;;;5034319;28;20512;-75
2022/04/23 04:23:01;;;;;;;37.25;16.55;;;12.70;72.00;;;;;;5013253;28;20110;-75
2022/04/23 04:25:27;;;;;;;30.50;16.27;;;12.70;72.10;;;;;;5015785;28;20059;-75
2022/04/23 04:27:54;;;;;;;34.17;19.05;;;12.70;72.00;;;;;;5036590;28;20091;-77
2022/04/23 04:30:20;;;;;;;28.45;16.15;;;12.80;72.10;;;;;;5050363;28;20030;-76
2022/04/23 04:32:46;;;;;;;22.05;13.25;;;12.70;72.20;;;;;;5033411;28;20405;-75
2022/04/23 04:35:12;;;;;;;22.20;12.18;;;12.70;72.50;;;;;;5037084;28;20535;-77
2022/04/23 04:37:39;;;;;;;20.02;12.50;;;12.60;72.60;;;;;;5027737;28;20061;-77
2022/04/23 04:40:06;;;;;;;29.15;14.63;;;12.60;71.90;;;;;;5052809;28;20473;-74
2022/04/23 04:42:32;;;;;;;25.60;13.55;;;12.60;72.50;;;;;;5029490;28;20037;-77
2022/04/23 04:44:59;;;;;;;24.25;13.77;;;12.50;72.20;;;;;;5035738;28;20029;-74
2022/04/23 04:47:25;;;;;;;23.27;12.95;;;12.50;72.80;;;;;;5053811;28;20049;-74
2022/04/23 04:49:51;;;;;;;22.50;11.63;;;12.50;72.80;;;;;;5036862;28;20028;-76
2022/04/23 04:52:17;;;;;;;20.77;12.90;;;12.50;72.70;;;;;;5033105;28;20053;-77
2022/04/23 04:54:43;;;;;;;20.58;11.85;;;12.60;72.50;;;;;;5049203;28;20025;-75
2022/04/23 04:57:09;;;;;;;21.60;11.40;;;12.60;72.50;;;;;;5031593;28;20048;-75
2022/04/23 04:59:35;;;;;;;20.48;12.23;;;12.60;72.40;;;;;;5032307;28;20029;-77
2022/04/23 05:02:02;;;;;;;;;;;12.60;72.30;;;;;;5037106;28;21159;-74
2022/04/23 05:04:28;;;;;;;21.17;11.98;;;12.70;72.10;;;;;;5032163;28;20020;-76
2022/04/23 05:06:54;;;;;;;21.33;12.98;;;12.70;71.90;;;;;;5034219;28;20116;-77
2022/04/23 05:09:21;;;;;;;19.52;11.65;;;12.70;71.30;;;;;;5053262;28;20398;-75
2022/04/23 05:11:47;;;;;;;25.88;12.10;;;12.80;71.60;;;;;;5032793;28;20033;-76
2022/04/23 05:14:13;;;;;;;24.08;14.27;;;12.90;72.70;;;;;;5027283;28;20026;-75
2022/04/23 05:16:39;;;;;;;21.98;12.38;;;12.90;71.60;;;;;;5022315;28;20477;-77
2022/04/23 05:19:05;;;;;;;21.17;12.98;;;13.00;71.40;;;;;;5054358;28;20049;-77
2022/04/23 05:21:31;;;;;;;21.33;12.23;;;13.00;71.20;;;;;;5054199;28;20028;-75
2022/04/23 05:23:58;;;;;;;;;;;13.10;71.30;;;;;;5034667;28;21987;-77
2022/04/23 05:26:24;;;;;;;20.35;12.50;;;13.10;71.10;;;;;;5036011;28;19939;-77
2022/04/23 05:28:50;;;;;;;21.10;12.80;;;13.10;71.00;;;;;;5035511;28;20083;-74
2022/04/23 05:31:16;;;;;;;30.52;18.30;;;13.20;70.80;;;;;;5032306;28;20037;-75
2022/04/23 05:33:42;;;;;;;28.25;15.30;;;13.30;70.70;;;;;;5030344;28;20562;-77
2022/04/23 05:36:08;;;;;;;27.40;15.77;;;13.40;70.60;;;;;;5032954;28;20080;-75
2022/04/23 05:38:36;;;;;;;30.77;15.82;;;13.50;70.60;;;;;;5027174;28;20102;-77
2022/04/23 05:41:03;;;;;;;28.05;16.13;;;13.60;70.40;;;;;;5035321;28;20037;-76
2022/04/23 05:43:29;;;;;;;31.15;17.73;;;13.60;70.10;;;;;;5036129;28;20068;-75
2022/04/23 05:45:57;;;;;;;30.55;16.48;;;13.60;70.20;;;;;;5026371;28;20124;-76
2022/04/23 05:48:24;;;;;;;30.27;15.80;;;13.60;70.30;;;;;;5053812;28;20037;-75
2022/04/23 05:50:51;;;;;;;33.95;16.90;;;13.60;69.80;;;;;;5028368;28;20036;-74
2022/04/23 05:53:17;;;;;;;28.73;14.65;;;13.60;70.30;;;;;;5052962;28;20049;-77
2022/04/23 05:55:43;;;;;;;26.92;15.38;;;13.60;70.50;;;;;;5034868;28;20485;-75
2022/04/23 05:58:09;;;;;;;29.63;16.20;;;13.60;70.50;;;;;;5053622;28;20595;-77
2022/04/23 06:00:36;;;;;;;28.90;16.77;;;13.60;70.40;;;;;;5035234;28;20024;-77
2022/04/23 06:03:02;;;;;;;30.83;15.55;;;13.60;70.30;;;;;;5053308;28;20132;-77
2022/04/23 06:05:28;;;;;;;29.80;16.55;;;13.70;70.40;;;;;;5053292;28;20078;-75
2022/04/23 06:07:54;;;;;;;34.63;18.50;;;13.70;70.30;;;;;;5053143;28;20053;-75
2022/04/23 06:10:20;;;;;;;30.20;15.57;;;13.70;70.30;;;;;;5052127;28;20037;-77
2022/04/23 06:12:46;;;;;;;;;;;13.70;70.30;;;;;;5053252;28;20102;-75
2022/04/23 06:15:12;;;;;;;27.63;14.63;;;13.70;70.30;;;;;;5035035;28;20558;-76
2022/04/23 06:17:38;;;;;;;32.60;15.95;;;13.70;70.20;;;;;;5031565;28;20507;-75
2022/04/23 06:20:05;;;;;;;29.63;15.70;;;13.60;70.40;;;;;;5050656;28;20036;-77
2022/04/23 06:22:32;;;;;;;31.65;17.83;;;13.50;70.60;;;;;;5030941;28;20045;-75
2022/04/23 06:24:58;;;;;;;;;;;13.50;70.80;;;;;;5052338;28;20116;-75
2022/04/23 06:27:24;;;;;;;36.97;17.65;;;13.60;70.40;;;;;;5052011;28;19921;-76
2022/04/23 06:29:50;;;;;;;36.13;17.70;;;13.60;70.10;;;;;;5053087;28;20040;-75
2022/04/23 06:32:16;;;;;;;36.60;18.58;;;13.70;70.30;;;;;;5034865;28;20048;-76
2022/04/23 06:34:42;;;;;;;36.53;17.48;;;13.60;70.30;;;;;;5035166;28;20045;-75
2022/04/23 06:37:08;;;;;;;;;;;13.70;70.50;;;;;;5034730;28;20045;-77
2022/04/23 06:39:35;;;;;;;37.65;19.05;;;13.70;70.30;;;;;;5017326;28;20373;-75
2022/04/23 06:42:01;;;;;;;33.30;17.42;;;13.70;69.80;;;;;;5034184;28;20124;-76
2022/04/23 06:44:27;;;;;;;;;;;13.80;69.80;;;;;;5018301;28;20033;-76
2022/04/23 06:46:53;;;;;;;34.88;17.63;;;13.80;69.70;;;;;;5017935;28;19912;-77
2022/04/23 06:49:19;;;;;;;35.38;17.90;;;13.80;69.70;;;;;;5052071;28;20469;-75
2022/04/23 06:51:45;;;;;;;34.95;19.38;;;13.80;69.90;;;;;;5033780;28;20037;-75
2022/04/23 06:54:12;;;;;;;33.20;16.45;;;13.90;69.90;;;;;;5051092;28;20070;-75
2022/04/23 06:56:39;;;;;;;32.15;15.60;;;13.90;70.00;;;;;;5033879;28;20091;-77
2022/04/23 06:59:05;;;;;;;36.67;17.17;;;14.00;69.80;;;;;;5034461;28;20041;-77
2022/04/23 07:01:31;;;;;;;;;;;14.10;69.40;;;;;;5052628;28;20025;-75
2022/04/23 07:03:57;;;;;;;39.55;18.77;;;14.20;69.30;;;;;;5034056;28;20301;-77
2022/04/23 07:06:23;;;;;;;40.83;18.52;;;14.30;68.80;;;;;;5051592;28;20147;-77
2022/04/23 07:08:49;;;;;;;35.70;16.58;;;14.50;68.60;;;;;;5017772;28;20067;-75
2022/04/23 07:11:15;;;;;;;29.30;14.50;;;14.60;68.20;;;;;;5033354;28;20075;-77
2022/04/23 07:13:43;;;;;;;;;;;14.70;67.30;;;;;;5034692;28;20052;-75
2022/04/23 07:16:11;;;;;;;35.60;16.92;;;15.00;67.80;;;;;;5033576;28;19943;-77
2022/04/23 07:18:41;;;;;;;38.22;15.10;;;15.40;66.80;;;;;;5033897;28;20559;-77
2022/04/23 07:21:07;;;;;;;29.70;14.85;;;15.90;65.60;;;;;;5042323;28;20068;-77
2022/04/23 07:26:18;;;;;;;28.75;14.93;;;16.40;64.60;;;;;;5028085;28;20095;-77
2022/04/23 07:28:44;;;;;;;28.25;13.85;;;16.50;64.20;;;;;;5050475;28;20044;-77
2022/04/23 07:31:10;;;;;;;30.30;14.40;;;16.40;64.50;;;;;;5050876;28;20457;-77
2022/04/23 07:39:05;;;;;;;27.73;13.85;;;16.30;64.70;;;;;;5034253;28;20135;-77
2022/04/23 07:41:31;;;;;;;;;;;16.20;64.50;;;;;;5014040;28;20040;-76
2022/04/23 07:43:57;;;;;;;28.20;13.88;;;16.20;64.60;;;;;;5030898;28;20254;-75
2022/04/23 07:46:24;;;;;;;27.98;14.48;;;16.00;64.60;;;;;;5030243;28;20029;-78
2022/04/23 07:48:50;;;;;;;35.10;15.20;;;15.90;65.10;;;;;;5019899;28;20050;-75
2022/04/23 07:51:18;;;;;;;35.15;15.57;;;15.80;65.00;;;;;;5034070;28;20033;-75
2022/04/23 07:53:44;;;;;;;32.60;15.05;;;15.70;65.30;;;;;;5027329;28;20490;-75
2022/04/23 07:56:10;;;;;;;27.85;14.95;;;15.70;65.30;;;;;;5029580;28;20041;-78
2022/04/23 07:58:36;;;;;;;29.60;14.95;;;15.60;65.40;;;;;;5015168;28;20038;-75
2022/04/23 08:01:03;;;;;;;31.27;16.33;;;15.70;65.20;;;;;;5026334;28;20029;-75
2022/04/23 08:03:29;;;;;;;32.08;16.20;;;15.80;64.60;;;;;;5026340;28;20069;-77
2022/04/23 08:05:56;;;;;;;28.25;14.43;;;16.10;64.00;;;;;;5024602;28;20029;-77
2022/04/23 08:08:23;;;;;;;38.67;17.45;;;16.30;63.50;;;;;;5049825;28;20045;-78
2022/04/23 08:10:49;;;;;;;37.88;18.10;;;16.40;63.10;;;;;;5037239;28;20416;-75
2022/04/23 08:13:17;;;;;;;34.30;15.20;;;16.40;63.10;;;;;;5015631;28;20045;-77
2022/04/23 08:15:43;;;;;;;29.58;14.57;;;16.30;63.50;;;;;;5018218;28;20060;-75
2022/04/23 08:18:09;;;;;;;;;;;16.20;63.60;;;;;;5033046;28;20047;-77
2022/04/23 08:20:37;;;;;;;27.50;15.15;;;16.10;64.10;;;;;;5010899;28;19925;-75
2022/04/23 08:23:03;;;;;;;30.77;15.38;;;16.00;64.00;;;;;;5046037;28;20144;-77
2022/04/23 08:25:29;;;;;;;33.33;16.50;;;15.90;64.50;;;;;;5022198;28;20040;-77
2022/04/23 08:30:43;;;;;;;29.67;15.07;;;15.80;64.30;;;;;;5025587;28;20087;-77
2022/04/23 08:33:09;;;;;;;24.55;13.85;;;15.80;64.20;;;;;;5029544;28;20421;-77
2022/04/23 08:35:38;;;;;;;27.88;14.70;;;15.90;64.00;;;;;;5050045;28;20539;-77
2022/04/23 08:38:06;;;;;;;35.50;16.63;;;16.00;63.60;;;;;;5036715;28;20386;-75
2022/04/23 08:40:50;;;;;;;56.10;32.53;;;16.10;63.40;;;;;;5019322;28;20395;-75
2022/04/23 08:43:16;;;;;;;59.92;38.28;;;16.20;63.00;;;;;;5035426;28;20034;-75
2022/04/23 08:45:42;;;;;;;41.15;22.33;;;16.20;62.90;;;;;;5041145;28;20044;-77
2022/04/23 08:48:14;;;;;;;27.73;15.23;;;16.40;62.60;;;;;;5020856;28;20436;-78
2022/04/23 08:50:43;;;;;;;28.33;16.48;;;16.50;62.30;;;;;;5025912;28;20438;-75
2022/04/23 08:53:34;;;;;;;32.22;15.10;;;16.50;62.10;;;;;;5018022;28;20037;-75
2022/04/23 08:56:01;;;;;;;29.95;15.30;;;16.50;62.40;;;;;;5020161;28;20413;-75
2022/04/23 08:58:28;;;;;;;26.08;15.57;;;16.50;62.20;;;;;;5037042;28;20420;-77
2022/04/23 09:00:54;;;;;;;29.23;15.15;;;16.50;62.40;;;;;;5015635;28;20219;-75
2022/04/23 09:03:20;;;;;;;;;;;16.70;62.20;;;;;;5038066;28;20037;-75
2022/04/23 09:06:11;;;;;;;28.33;14.85;;;16.80;62.20;;;;;;5017055;28;19920;-77
2022/04/23 09:08:37;;;;;;;24.83;13.52;;;17.00;61.30;;;;;;5030476;28;20136;-79
2022/04/23 09:11:03;;;;;;;25.55;14.38;;;17.10;61.10;;;;;;5002087;28;20040;-75
2022/04/23 09:13:31;;;;;;;24.38;13.55;;;17.30;60.60;;;;;;5035592;28;20076;-75
2022/04/23 09:24:51;;;;;;;31.77;18.45;;;18.30;58.30;;;;;;5046120;28;20064;-78
2022/04/23 09:27:17;;;;;;;28.30;17.05;;;18.60;57.80;;;;;;5040685;28;20037;-75
2022/04/23 09:30:05;;;;;;;31.00;17.95;;;18.80;57.10;;;;;;5030202;28;20029;-78
2022/04/23 09:32:32;;;;;;;24.23;14.40;;;19.20;56.00;;;;;;5029672;28;20045;-75
2022/04/23 09:35:17;;;;;;;24.17;13.20;;;19.30;56.10;;;;;;5025086;28;20112;-78
2022/04/23 09:40:29;;;;;;;22.83;12.15;;;19.30;56.50;;;;;;5018306;28;20742;-78
2022/04/23 09:43:14;;;;;;;26.52;14.35;;;19.70;55.30;;;;;;5032582;28;20083;-78
2022/04/23 09:48:25;;;;;;;18.58;10.68;;;19.70;54.90;;;;;;5045290;28;20132;-78
2022/04/23 09:50:51;;;;;;;21.48;12.25;;;19.50;55.00;;;;;;5042494;28;20027;-78
2022/04/23 09:53:19;;;;;;;29.10;14.45;;;19.40;55.30;;;;;;5023620;28;20479;-78
2022/04/23 09:55:47;;;;;;;20.23;11.18;;;19.20;55.30;;;;;;5004560;28;20036;-75
2022/04/23 09:58:14;;;;;;;26.30;12.77;;;19.00;55.30;;;;;;5033045;28;20493;-78
2022/04/23 10:01:00;;;;;;;21.83;12.93;;;18.90;55.60;;;;;;5028772;28;20079;-78
2022/04/23 10:03:33;;;;;;;188.77;29.33;;;18.70;56.10;;;;;;5024469;28;20068;-75
2022/04/23 10:06:02;;;;;;;21.35;10.80;;;18.60;56.20;;;;;;5022570;28;20464;-78
2022/04/23 10:08:31;;;;;;;20.15;11.32;;;18.60;55.70;;;;;;5022639;28;20045;-77
2022/04/23 10:11:36;;;;;;;23.90;10.85;;;18.60;55.30;;;;;;5025042;28;20037;-78
2022/04/23 10:14:22;;;;;;;16.20;10.18;;;18.80;55.00;;;;;;5040849;28;20037;-75
2022/04/23 10:16:49;;;;;;;22.27;11.13;;;18.90;54.20;;;;;;5051321;28;20025;-78
2022/04/23 10:19:16;;;;;;;21.55;12.23;;;18.90;54.50;;;;;;5014860;28;20038;-78
2022/04/23 10:22:41;;;;;;;17.58;9.00;;;18.80;54.90;;;;;;5022984;28;20044;-75
2022/04/23 10:26:03;;;;;;;19.40;9.93;;;19.00;54.50;;;;;;5042849;28;20084;-78
2022/04/23 10:28:29;;;;;;;18.30;10.60;;;19.10;54.20;;;;;;5039612;28;20041;-75
2022/04/23 10:31:15;;;;;;;;;;;19.40;54.30;;;;;;5020781;28;20033;-78
2022/04/23 10:33:52;;;;;;;17.73;9.00;;;19.60;53.50;;;;;;5024388;28;20292;-75
2022/04/23 10:36:20;;;;;;;18.42;10.07;;;19.40;52.90;;;;;;5051498;28;20029;-78
2022/04/23 10:38:51;;;;;;;17.65;9.57;;;19.20;53.60;;;;;;5033601;28;20029;-75
2022/04/23 10:41:20;;;;;;;16.35;8.90;;;19.30;53.30;;;;;;5035512;28;20393;-75
2022/04/23 10:44:00;;;;;;;18.40;9.77;;;19.50;52.80;;;;;;5033779;28;20037;-75
2022/04/23 10:46:45;;;;;;;16.88;9.48;;;19.80;52.00;;;;;;5029596;28;20033;-75
2022/04/23 10:49:17;;;;;;;20.42;10.10;;;20.30;50.80;;;;;;5045956;28;20037;-78
2022/04/23 10:52:02;;;;;;;16.80;9.52;;;20.80;50.00;;;;;;5027934;28;20068;-75
2022/04/23 10:54:47;;;;;;;17.40;10.43;;;21.60;48.80;;;;;;5033805;28;20025;-79
2022/04/23 10:57:14;;;;;;;16.77;9.13;;;23.00;47.10;;;;;;5021497;28;20037;-75
2022/04/23 11:00:19;;;;;;;20.65;9.95;;;24.50;43.50;;;;;;5029756;28;20417;-75
2022/04/23 11:03:43;;;;;;;11.77;6.90;;;25.30;42.20;;;;;;5031505;28;20037;-75
2022/04/23 11:12:39;;;;;;;12.90;6.43;;;24.20;42.40;;;;;;5035103;28;20048;-78
2022/04/23 11:15:24;;;;;;;10.95;6.90;;;24.20;41.60;;;;;;5025391;28;20037;-77
2022/04/23 11:17:56;;;;;;;11.88;5.22;;;24.40;41.70;;;;;;5058037;28;20103;-78
2022/04/23 11:20:41;;;;;;;11.32;6.40;;;24.50;40.00;;;;;;5030334;28;20427;-78
2022/04/23 11:23:08;;;;;;;8.63;4.90;;;24.90;39.90;;;;;;5050477;28;20037;-78
2022/04/23 11:25:34;;;;;;;18.95;4.78;;;24.60;39.20;;;;;;5051011;28;20029;-78
2022/04/23 11:28:22;;;;;;;10.23;5.82;;;24.10;38.70;;;;;;5022460;28;20489;-77
2022/04/23 11:30:51;;;;;;;10.20;5.95;;;23.80;39.80;;;;;;5047977;28;20037;-75
2022/04/23 11:33:17;;;;;;;8.93;5.63;;;23.70;40.10;;;;;;5052116;28;20106;-77
2022/04/23 11:35:43;;;;;;;9.57;6.20;;;23.80;40.30;;;;;;5051854;28;20079;-78
2022/04/23 11:38:28;;;;;;;;;;;23.90;40.40;;;;;;5043777;28;20043;-77
2022/04/23 11:40:54;;;;;;;10.32;4.93;;;23.50;40.80;;;;;;5017007;28;20373;-75
2022/04/23 11:43:39;;;;;;;10.20;4.85;;;23.10;40.90;;;;;;5044027;28;20047;-75
2022/04/23 11:46:08;;;;;;;8.07;4.35;;;22.80;41.80;;;;;;5023989;28;20037;-74
2022/04/23 11:48:48;;;;;;;10.07;6.28;;;22.60;40.80;;;;;;5015429;28;20494;-74
2022/04/23 11:51:20;;;;;;;7.28;4.18;;;22.70;42.50;;;;;;5018921;28;20075;-74
2022/04/23 11:54:00;;;;;;;11.15;4.80;;;22.90;41.30;;;;;;5033878;28;20396;-77
2022/04/23 11:56:46;;;;;;;10.48;5.03;;;23.00;40.90;;;;;;5032998;28;20033;-77
2022/04/23 11:59:12;;;;;;;9.55;4.75;;;23.20;41.10;;;;;;5050121;28;20041;-74
2022/04/23 12:01:38;;;;;;;;;;;23.40;40.40;;;;;;5015776;28;20132;-76
2022/04/23 12:04:04;;;;;;;10.75;5.35;;;24.00;40.00;;;;;;5034268;28;20132;-76
2022/04/23 12:06:49;;;;;;;7.28;4.07;;;25.50;38.40;;;;;;5036194;28;20055;-76
2022/04/23 12:09:15;;;;;;;12.75;5.18;;;29.40;33.10;;;;;;5034223;28;20041;-74
2022/04/23 12:11:41;;;;;;;7.32;3.90;;;32.00;29.00;;;;;;5020375;28;20040;-74
2022/04/23 12:14:09;;;;;;;6.43;3.80;;;32.30;27.80;;;;;;5051590;28;20048;-74
2022/04/23 12:17:00;;;;;;;8.70;4.78;;;31.50;26.90;;;;;;5037367;28;20068;-74
2022/04/23 12:19:32;;;;;;;6.57;3.40;;;29.10;30.10;;;;;;5033585;28;20045;-74
2022/04/23 12:21:58;;;;;;;7.75;4.13;;;27.70;32.00;;;;;;5049280;28;20477;-76
2022/04/23 12:24:43;;;;;;;6.82;3.72;;;26.50;32.40;;;;;;5035377;28;20123;-76
2022/04/23 12:27:10;;;;;;;18.38;4.65;;;25.50;35.10;;;;;;5038591;28;20041;-76
2022/04/23 12:41:13;;;;;;;6.30;2.88;;;23.30;37.90;;;;;;5015976;28;20144;-74
2022/04/23 12:43:39;;;;;;;5.88;2.92;;;22.80;39.80;;;;;;5016471;28;20044;-76
2022/04/23 12:46:07;;;;;;;;;;;22.40;40.20;;;;;;5036534;28;20034;-74
2022/04/23 12:48:57;;;;;;;4.40;1.70;;;21.90;40.10;;;;;;5055282;28;19927;-74
2022/04/23 12:51:24;;;;;;;5.32;2.13;;;21.60;41.50;;;;;;5032415;28;20080;-77
2022/04/23 12:53:50;;;;;;;5.97;1.00;;;21.30;41.60;;;;;;5017310;28;20346;-74
2022/04/23 12:56:18;;;;;;;3.30;1.13;;;21.10;42.00;;;;;;5035545;28;20033;-74
2022/04/23 12:58:45;;;;;;;1.42;0.60;;;20.80;41.50;;;;;;5017702;28;20144;-74
2022/04/23 13:01:12;;;;;;;3.53;0.80;;;20.60;42.80;;;;;;5017919;28;20030;-75
2022/04/23 13:03:44;;;;;;;2.15;0.68;;;20.50;42.60;;;;;;5036270;28;20041;-75
2022/04/23 13:08:56;;;;;;;0.82;0.50;;;20.30;42.90;;;;;;5036006;28;20452;-76
2022/04/23 13:11:41;;;;;;;3.40;1.00;;;20.10;43.10;;;;;;5027084;28;20112;-76
2022/04/23 13:14:07;;;;;;;4.72;1.52;;;20.20;44.00;;;;;;5028629;28;20030;-75
2022/04/23 13:16:36;;;;;;;;;;;20.30;44.00;;;;;;5049760;28;20039;-75
2022/04/23 13:19:04;;;;;;;5.47;2.60;;;20.90;42.60;;;;;;5021480;28;19925;-75
2022/04/23 13:21:32;;;;;;;2.92;1.60;;;21.20;42.20;;;;;;5039808;28;20113;-74
2022/04/23 13:23:59;;;;;;;2.78;1.30;;;21.20;42.10;;;;;;5021493;28;20428;-75
2022/04/23 13:26:28;;;;;;;3.17;1.20;;;21.10;42.60;;;;;;5021147;28;20029;-75
2022/04/23 13:28:54;;;;;;;2.28;0.60;;;21.90;42.40;;;;;;4999514;28;20080;-74
2022/04/23 13:31:20;;;;;;;4.93;1.30;;;24.50;37.40;;;;;;5023495;28;20029;-74
2022/04/23 13:33:47;;;;;;;4.60;2.08;;;24.10;37.30;;;;;;5028950;28;20052;-74
2022/04/23 13:36:14;;;;;;;1.52;0.80;;;23.40;38.80;;;;;;5052908;28;20137;-74
2022/04/23 13:38:40;;;;;;;3.35;0.75;;;23.40;37.90;;;;;;5038517;28;20033;-74
2022/04/23 13:43:54;;;;;;;4.43;1.70;;;26.70;32.80;;;;;;5044459;28;20055;-76
2022/04/23 13:46:20;;;;;;;2.65;1.13;;;26.70;31.80;;;;;;5070016;28;20036;-75